createdAt,value
2023-05-09T00:00:42.430Z,99.90
2023-05-09T00:03:17.251Z,99.90
2023-05-09T00:05:48.738Z,99.90
2023-05-09T00:08:24.542Z,99.90
2023-05-09T00:10:54.811Z,99.90
2023-05-09T00:13:25.555Z,99.90
2023-05-09T00:16:00.392Z,99.90
2023-05-09T00:18:32.202Z,99.90
2023-05-09T00:21:04.251Z,99.90
2023-05-09T00:23:35.097Z,99.90
2023-05-09T00:26:12.395Z,99.90
2023-05-09T00:28:47.562Z,99.90
2023-05-09T00:31:19.597Z,99.90
2023-05-09T00:33:50.957Z,99.90
2023-05-09T00:36:27.562Z,99.90
2023-05-09T00:41:44.409Z,99.90
2023-05-09T00:44:14.636Z,99.90
2023-05-09T00:46:45.521Z,99.90
2023-05-09T00:49:16.848Z,99.90
2023-05-09T00:51:48.219Z,99.90
2023-05-09T00:54:19.271Z,99.90
2023-05-09T00:56:51.612Z,99.90
2023-05-09T00:59:24.925Z,99.90
2023-05-09T01:01:57.032Z,99.90
2023-05-09T01:04:29.501Z,99.90
2023-05-09T01:07:47.425Z,99.90
2023-05-09T01:10:37.988Z,99.90
2023-05-09T01:13:46.325Z,99.90
2023-05-09T01:16:39.650Z,99.90
2023-05-09T01:19:20.873Z,99.90
2023-05-09T01:21:52.886Z,99.90
2023-05-09T01:24:32.918Z,99.90
2023-05-09T01:27:24.453Z,99.90
2023-05-09T01:30:05.061Z,99.90
2023-05-09T01:32:42.031Z,99.90
2023-05-09T01:35:31.821Z,99.90
2023-05-09T01:38:01.500Z,99.90
2023-05-09T01:40:41.334Z,99.90
2023-05-09T01:43:19.803Z,99.90
2023-05-09T01:45:55.488Z,99.90
2023-05-09T01:48:30.524Z,99.90
2023-05-09T01:51:11.313Z,99.90
2023-05-09T01:53:45.357Z,99.90
2023-05-09T01:56:13.916Z,99.90
2023-05-09T01:58:50.859Z,99.90
2023-05-09T02:01:27.432Z,99.90
2023-05-09T02:03:56.753Z,99.90
2023-05-09T02:06:30.745Z,99.90
2023-05-09T02:09:04.118Z,99.90
2023-05-09T02:11:34.504Z,99.90
2023-05-09T02:14:04.606Z,99.90
2023-05-09T02:16:36.795Z,99.90
2023-05-09T02:19:06.850Z,99.90
2023-05-09T02:21:37.423Z,99.90
2023-05-09T02:24:07.162Z,99.90
2023-05-09T02:26:40.457Z,99.90
2023-05-09T02:29:22.245Z,99.90
2023-05-09T02:32:00.206Z,99.90
2023-05-09T02:34:31.640Z,99.90
2023-05-09T02:37:06.561Z,99.90
2023-05-09T02:39:36.602Z,99.90
2023-05-09T02:42:16.807Z,99.90
2023-05-09T02:44:49.101Z,99.90
2023-05-09T02:47:26.103Z,99.90
2023-05-09T02:50:00.826Z,99.90
2023-05-09T02:52:31.713Z,99.90
2023-05-09T02:55:01.741Z,99.90
2023-05-09T02:57:36.525Z,99.90
2023-05-09T03:00:11.088Z,99.90
2023-05-09T03:02:41.168Z,99.90
2023-05-09T03:05:21.955Z,99.90
2023-05-09T03:07:55.084Z,99.90
2023-05-09T03:10:24.481Z,99.90
2023-05-09T03:12:58.747Z,99.90
2023-05-09T03:15:28.507Z,99.90
2023-05-09T03:17:57.636Z,99.90
2023-05-09T03:20:28.465Z,99.90
2023-05-09T03:23:01.770Z,99.90
2023-05-09T03:25:45.881Z,99.90
2023-05-09T03:28:16.634Z,99.90
2023-05-09T03:30:51.983Z,99.90
2023-05-09T03:33:31.175Z,99.90
2023-05-09T03:36:07.860Z,99.90
2023-05-09T03:38:39.858Z,99.90
2023-05-09T03:41:14.867Z,99.90
2023-05-09T03:43:50.256Z,99.90
2023-05-09T03:46:22.550Z,99.90
2023-05-09T03:48:54.577Z,99.90
2023-05-09T03:51:29.198Z,99.90
2023-05-09T03:54:10.220Z,99.90
2023-05-09T03:56:49.764Z,99.90
2023-05-09T03:59:19.373Z,99.90
2023-05-09T04:01:48.711Z,99.90
2023-05-09T04:04:29.843Z,99.90
2023-05-09T04:07:10.421Z,99.90
2023-05-09T04:09:42.413Z,99.90
2023-05-09T04:12:21.782Z,99.90
2023-05-09T04:14:55.255Z,99.90
2023-05-09T04:17:30.847Z,99.90
2023-05-09T04:20:12.860Z,99.90
2023-05-09T04:23:04.541Z,99.90
2023-05-09T04:25:34.789Z,99.90
2023-05-09T04:28:18.919Z,99.90
2023-05-09T04:30:50.203Z,99.90
2023-05-09T04:33:33.760Z,99.90
2023-05-09T04:36:09.298Z,99.90
2023-05-09T04:38:39.087Z,99.90
2023-05-09T04:41:25.085Z,99.90
2023-05-09T04:43:55.148Z,99.90
2023-05-09T04:46:39.000Z,99.90
2023-05-09T04:49:27.232Z,99.90
2023-05-09T04:51:56.558Z,99.90
2023-05-09T04:54:39.245Z,99.90
2023-05-09T04:57:17.228Z,99.90
2023-05-09T04:59:57.309Z,99.90
2023-05-09T05:02:28.736Z,99.90
2023-05-09T05:05:11.012Z,99.90
2023-05-09T05:07:54.498Z,99.90
2023-05-09T05:10:34.014Z,99.90
2023-05-09T05:13:11.817Z,99.90
2023-05-09T05:15:44.773Z,99.90
2023-05-09T05:18:16.104Z,99.90
2023-05-09T05:20:48.231Z,99.90
2023-05-09T05:23:19.462Z,99.90
2023-05-09T05:26:00.268Z,99.90
2023-05-09T05:28:42.187Z,99.90
2023-05-09T05:31:18.341Z,99.90
2023-05-09T05:33:53.844Z,99.90
2023-05-09T05:36:24.900Z,99.90
2023-05-09T05:38:54.308Z,99.90
2023-05-09T05:41:37.262Z,99.90
2023-05-09T05:44:18.620Z,99.90
2023-05-09T05:46:53.040Z,99.90
2023-05-09T05:49:31.289Z,99.90
2023-05-09T05:52:06.642Z,99.90
2023-05-09T05:54:41.735Z,99.90
2023-05-09T05:57:14.018Z,99.90
2023-05-09T05:59:44.566Z,99.90
2023-05-09T06:02:23.831Z,99.90
2023-05-09T06:04:54.657Z,99.90
2023-05-09T06:07:27.443Z,99.90
2023-05-09T06:09:59.285Z,99.90
2023-05-09T06:12:34.792Z,99.90
2023-05-09T06:15:06.179Z,99.90
2023-05-09T06:17:43.496Z,99.90
2023-05-09T06:20:15.013Z,99.90
2023-05-09T06:22:46.509Z,99.90
2023-05-09T06:25:18.382Z,99.90
2023-05-09T06:27:48.904Z,99.90
2023-05-09T06:30:26.413Z,99.90
2023-05-09T06:35:44.410Z,99.90
2023-05-09T06:38:15.805Z,99.90
2023-05-09T06:40:50.529Z,99.90
2023-05-09T06:43:20.571Z,99.90
2023-05-09T06:45:49.101Z,99.90
2023-05-09T06:48:21.544Z,99.90
2023-05-09T06:50:54.815Z,99.90
2023-05-09T06:53:24.900Z,99.90
2023-05-09T06:55:56.291Z,99.90
2023-05-09T06:58:30.873Z,99.90
2023-05-09T07:01:04.293Z,99.90
2023-05-09T07:03:36.786Z,99.90
2023-05-09T07:08:59.354Z,99.90
2023-05-09T07:11:28.775Z,99.90
2023-05-09T07:14:01.146Z,99.90
2023-05-09T07:16:31.129Z,99.90
2023-05-09T07:19:00.810Z,99.90
2023-05-09T07:21:29.613Z,99.90
2023-05-09T07:24:09.782Z,99.90
2023-05-09T07:26:37.554Z,99.90
2023-05-09T07:29:16.356Z,99.90
2023-05-09T07:31:56.509Z,99.90
2023-05-09T07:34:27.249Z,99.90
2023-05-09T07:36:55.986Z,99.90
2023-05-09T07:39:29.164Z,99.90
2023-05-09T07:42:00.959Z,99.90
2023-05-09T07:44:35.515Z,99.90
2023-05-09T07:47:09.262Z,99.90
2023-05-09T07:49:45.244Z,99.90
2023-05-09T07:52:14.909Z,99.90
2023-05-09T07:54:47.385Z,99.90
2023-05-09T07:57:27.657Z,99.90
2023-05-09T07:59:59.854Z,99.90
2023-05-09T08:02:33.119Z,99.90
2023-05-09T08:05:07.361Z,99.90
2023-05-09T08:07:41.617Z,99.90
2023-05-09T08:10:13.953Z,99.90
2023-05-09T08:12:48.021Z,99.90
2023-05-09T08:15:21.928Z,99.90
2023-05-09T08:17:51.917Z,99.90
2023-05-09T08:20:22.241Z,99.90
2023-05-09T08:22:52.020Z,99.90
2023-05-09T08:25:25.444Z,99.90
2023-05-09T08:28:08.639Z,99.90
2023-05-09T08:30:58.158Z,99.90
2023-05-09T08:33:30.095Z,99.90
2023-05-09T08:35:59.798Z,99.90
2023-05-09T08:38:30.598Z,99.90
2023-05-09T08:41:02.434Z,99.90
2023-05-09T08:43:38.782Z,99.90
2023-05-09T08:46:13.176Z,99.90
2023-05-09T08:48:55.571Z,99.90
2023-05-09T08:51:25.941Z,99.90
2023-05-09T08:53:56.665Z,99.90
2023-05-09T08:56:29.779Z,99.90
2023-05-09T08:59:00.402Z,99.90
2023-05-09T09:01:29.405Z,99.90
2023-05-09T09:03:59.069Z,99.90
2023-05-09T09:06:40.057Z,99.90
2023-05-09T09:09:19.864Z,99.90
2023-05-09T09:11:54.961Z,99.90
2023-05-09T09:14:51.222Z,99.90
2023-05-09T09:17:32.380Z,99.90
2023-05-09T09:20:13.484Z,99.90
2023-05-09T09:22:45.325Z,99.90
2023-05-09T09:25:19.222Z,99.90
2023-05-09T09:27:54.364Z,99.90
2023-05-09T09:30:35.461Z,99.90
2023-05-09T09:33:08.409Z,99.90
2023-05-09T09:35:43.451Z,99.90
2023-05-09T09:38:13.999Z,99.90
2023-05-09T09:41:06.959Z,99.90
2023-05-09T09:43:37.483Z,99.90
2023-05-09T09:46:10.133Z,99.90
2023-05-09T09:48:43.003Z,99.90
2023-05-09T09:51:22.006Z,99.90
2023-05-09T09:53:57.003Z,99.90
2023-05-09T09:56:39.122Z,99.90
2023-05-09T09:59:15.290Z,99.90
2023-05-09T10:02:08.279Z,99.90
2023-05-09T10:05:03.924Z,99.90
2023-05-09T10:07:35.738Z,99.90
2023-05-09T10:10:09.437Z,99.90
2023-05-09T10:12:37.516Z,99.90
2023-05-09T10:15:10.495Z,99.90
2023-05-09T10:17:42.473Z,99.90
2023-05-09T10:20:24.074Z,99.90
2023-05-09T10:23:05.978Z,99.90
2023-05-09T10:26:33.213Z,99.80
2023-05-09T10:29:13.851Z,99.90
2023-05-09T10:31:43.683Z,99.70
2023-05-09T10:34:27.662Z,98.40
2023-05-09T10:37:08.755Z,98.80
2023-05-09T10:39:41.874Z,98.60
2023-05-09T10:42:19.332Z,99.10
2023-05-09T10:44:56.672Z,99.10
2023-05-09T10:47:30.032Z,98.90
2023-05-09T10:50:06.998Z,98.20
2023-05-09T10:52:38.350Z,98.60
2023-05-09T10:55:15.838Z,99.10
2023-05-09T10:57:56.310Z,99.40
2023-05-09T11:00:33.366Z,99.00
2023-05-09T11:03:13.143Z,98.20
2023-05-09T11:05:46.504Z,97.80
2023-05-09T11:08:37.363Z,97.50
2023-05-09T11:11:07.696Z,97.00
2023-05-09T11:13:38.818Z,97.10
2023-05-09T11:16:12.363Z,97.40
2023-05-09T11:19:03.290Z,97.00
2023-05-09T11:22:03.013Z,96.10
2023-05-09T11:24:58.158Z,97.40
2023-05-09T11:27:38.231Z,97.60
2023-05-09T11:30:23.579Z,98.10
2023-05-09T11:33:07.855Z,98.20
2023-05-09T11:35:39.152Z,98.00
2023-05-09T11:38:08.626Z,98.30
2023-05-09T11:40:42.055Z,97.90
2023-05-09T11:43:23.663Z,96.60
2023-05-09T11:45:59.220Z,96.90
2023-05-09T11:48:39.353Z,96.90
2023-05-09T11:51:31.647Z,96.60
2023-05-09T11:54:02.934Z,96.30
2023-05-09T11:56:34.260Z,95.40
2023-05-09T11:59:08.270Z,95.80
2023-05-09T12:01:37.776Z,95.20
2023-05-09T12:04:17.338Z,95.20
2023-05-09T12:06:54.378Z,94.20
2023-05-09T12:09:27.990Z,93.70
2023-05-09T12:11:58.384Z,94.10
2023-05-09T12:14:37.618Z,94.00
2023-05-09T12:17:09.925Z,94.30
2023-05-09T12:19:43.980Z,93.80
2023-05-09T12:22:26.030Z,93.60
2023-05-09T12:24:56.454Z,93.70
2023-05-09T12:27:29.109Z,94.80
2023-05-09T12:29:57.287Z,95.50
2023-05-09T12:32:35.406Z,96.00
2023-05-09T12:35:06.712Z,95.70
2023-05-09T12:37:39.539Z,95.30
2023-05-09T12:40:20.825Z,95.50
2023-05-09T12:42:50.224Z,95.40
2023-05-09T12:45:23.192Z,94.90
2023-05-09T12:47:59.775Z,94.10
2023-05-09T12:50:35.545Z,93.70
2023-05-09T12:53:12.003Z,93.10
2023-05-09T12:55:45.929Z,91.90
2023-05-09T12:58:18.405Z,91.70
2023-05-09T13:01:05.829Z,90.70
2023-05-09T13:03:40.703Z,89.00
2023-05-09T13:06:17.776Z,82.90
2023-05-09T13:09:06.757Z,76.30
2023-05-09T13:11:37.800Z,70.40
2023-05-09T13:14:08.516Z,66.80
2023-05-09T13:16:44.519Z,63.70
2023-05-09T13:19:17.164Z,62.10
2023-05-09T13:21:48.189Z,61.00
2023-05-09T13:24:20.514Z,61.80
2023-05-09T13:26:51.389Z,59.10
2023-05-09T13:29:22.902Z,58.60
2023-05-09T13:31:53.010Z,56.40
2023-05-09T13:34:25.901Z,56.50
2023-05-09T13:37:09.316Z,54.90
2023-05-09T13:39:39.097Z,53.40
2023-05-09T13:42:26.404Z,51.50
2023-05-09T13:44:57.504Z,51.50
2023-05-09T13:47:33.187Z,52.50
2023-05-09T13:50:13.180Z,54.70
2023-05-09T13:52:45.359Z,56.50
2023-05-09T13:55:15.233Z,58.40
2023-05-09T13:57:47.445Z,58.90
2023-05-09T14:00:18.614Z,58.90
2023-05-09T14:02:48.449Z,58.20
2023-05-09T14:05:18.321Z,58.10
2023-05-09T14:07:49.667Z,58.60
2023-05-09T14:10:20.067Z,60.30
2023-05-09T14:13:00.773Z,62.70
2023-05-09T14:15:31.101Z,65.30
2023-05-09T14:18:01.237Z,65.50
2023-05-09T14:20:37.373Z,67.20
2023-05-09T14:23:18.306Z,68.10
2023-05-09T14:25:49.377Z,68.80
2023-05-09T14:28:18.018Z,69.40
2023-05-09T14:30:51.576Z,68.40
2023-05-09T14:33:25.012Z,66.00
2023-05-09T14:36:01.209Z,66.50
2023-05-09T14:38:37.979Z,63.80
2023-05-09T14:41:07.210Z,61.90
2023-05-09T14:43:40.856Z,61.10
2023-05-09T14:46:16.131Z,61.20
2023-05-09T14:48:45.529Z,60.00
2023-05-09T14:51:16.809Z,61.80
2023-05-09T14:53:50.921Z,63.40
2023-05-09T14:56:24.388Z,66.30
2023-05-09T14:58:57.576Z,66.80
2023-05-09T15:01:34.564Z,68.40
2023-05-09T15:04:04.755Z,70.50
2023-05-09T15:06:42.804Z,70.70
2023-05-09T15:09:13.204Z,71.90
2023-05-09T15:11:49.384Z,71.20
2023-05-09T15:14:18.484Z,72.70
2023-05-09T15:16:48.463Z,74.30
2023-05-09T15:19:18.682Z,74.00
2023-05-09T15:21:51.802Z,73.20
2023-05-09T15:24:24.301Z,72.90
2023-05-09T15:26:55.262Z,72.80
2023-05-09T15:29:25.359Z,72.50
2023-05-09T15:31:58.150Z,73.00
2023-05-09T15:34:28.154Z,71.80
2023-05-09T15:36:59.619Z,71.00
2023-05-09T15:39:38.356Z,68.00
2023-05-09T15:42:12.259Z,68.50
2023-05-09T15:44:50.334Z,70.00
2023-05-09T15:47:20.980Z,70.80
2023-05-09T15:49:56.104Z,71.10
2023-05-09T15:52:37.561Z,72.90
2023-05-09T15:55:09.763Z,75.30
2023-05-09T15:57:52.762Z,76.40
2023-05-09T16:00:23.814Z,77.50
2023-05-09T16:02:54.804Z,78.60
2023-05-09T16:05:27.796Z,79.30
2023-05-09T16:07:56.823Z,80.40
2023-05-09T16:10:38.885Z,80.50
2023-05-09T16:13:08.627Z,81.70
2023-05-09T16:15:41.931Z,82.10
2023-05-09T16:18:14.353Z,83.40
2023-05-09T16:20:45.251Z,83.80
2023-05-09T16:23:22.020Z,82.90
2023-05-09T16:25:52.469Z,83.20
2023-05-09T16:28:23.803Z,84.10
2023-05-09T16:30:59.512Z,84.00
2023-05-09T16:33:30.660Z,84.70
2023-05-09T16:36:00.316Z,83.80
2023-05-09T16:38:34.434Z,82.50
2023-05-09T16:41:10.918Z,82.60
2023-05-09T16:43:41.881Z,81.70
2023-05-09T16:46:12.508Z,81.30
2023-05-09T16:48:42.923Z,81.40
2023-05-09T16:51:12.793Z,80.90
2023-05-09T16:53:45.193Z,81.40
2023-05-09T16:56:19.020Z,81.80
2023-05-09T16:58:50.533Z,83.20
2023-05-09T17:01:19.826Z,84.40
2023-05-09T17:03:54.580Z,85.50
2023-05-09T17:06:25.278Z,86.70
2023-05-09T17:08:57.814Z,87.10
2023-05-09T17:11:28.169Z,88.10
2023-05-09T17:14:04.294Z,89.10
2023-05-09T17:16:38.282Z,90.00
2023-05-09T17:19:19.789Z,90.50
2023-05-09T17:21:52.040Z,91.00
2023-05-09T17:24:25.611Z,91.40
2023-05-09T17:27:06.363Z,91.70
2023-05-09T17:29:39.507Z,91.90
2023-05-09T17:32:13.102Z,92.20
2023-05-09T17:34:43.580Z,92.40
2023-05-09T17:37:14.566Z,92.80
2023-05-09T17:39:47.835Z,92.90
2023-05-09T17:42:34.536Z,93.10
2023-05-09T17:45:09.633Z,93.40
2023-05-09T17:47:50.469Z,94.10
2023-05-09T17:50:21.662Z,94.70
2023-05-09T17:53:00.644Z,94.80
2023-05-09T17:55:32.329Z,95.30
2023-05-09T17:58:08.208Z,95.50
2023-05-09T18:00:37.333Z,95.90
2023-05-09T18:03:07.649Z,95.90
2023-05-09T18:05:49.485Z,96.00
2023-05-09T18:08:25.122Z,96.40
2023-05-09T18:11:01.685Z,96.60
2023-05-09T18:13:39.844Z,97.10
2023-05-09T18:16:10.874Z,97.60
2023-05-09T18:18:48.991Z,97.60
2023-05-09T18:21:20.644Z,98.00
2023-05-09T18:23:50.729Z,98.10
2023-05-09T18:26:24.404Z,98.30
2023-05-09T18:28:54.812Z,98.70
2023-05-09T18:31:27.297Z,98.70
2023-05-09T18:34:00.724Z,99.00
2023-05-09T18:36:41.287Z,99.10
2023-05-09T18:39:11.909Z,99.20
2023-05-09T18:41:43.594Z,99.40
2023-05-09T18:44:15.750Z,99.30
2023-05-09T18:46:46.885Z,99.50
2023-05-09T18:49:14.297Z,99.40
2023-05-09T18:51:52.710Z,99.60
2023-05-09T18:54:25.045Z,99.60
2023-05-09T18:56:56.214Z,99.80
2023-05-09T18:59:24.850Z,99.90
2023-05-09T19:01:54.787Z,99.90
2023-05-09T19:04:26.391Z,99.90
2023-05-09T19:06:59.467Z,99.80
2023-05-09T19:09:31.406Z,99.90
2023-05-09T19:12:05.335Z,99.90
2023-05-09T19:14:34.173Z,99.90
2023-05-09T19:17:07.336Z,99.90
2023-05-09T19:19:36.241Z,99.90
2023-05-09T19:22:08.249Z,99.90
2023-05-09T19:24:44.243Z,99.90
2023-05-09T19:27:14.437Z,99.90
2023-05-09T19:29:50.046Z,99.90
2023-05-09T19:32:21.743Z,99.90
2023-05-09T19:34:52.730Z,99.90
2023-05-09T19:37:27.488Z,99.90
2023-05-09T19:40:07.847Z,99.90
2023-05-09T19:42:39.784Z,99.90
2023-05-09T19:45:14.980Z,99.90
2023-05-09T19:47:46.419Z,99.90
2023-05-09T19:50:15.459Z,99.90
2023-05-09T19:52:46.765Z,99.90
2023-05-09T19:55:20.558Z,99.90
2023-05-09T19:57:57.851Z,99.90
2023-05-09T20:00:28.833Z,99.90
2023-05-09T20:03:01.187Z,99.90
2023-05-09T20:08:23.125Z,99.90
2023-05-09T20:11:00.873Z,99.90
2023-05-09T20:13:45.672Z,99.90
2023-05-09T20:16:19.164Z,99.90
2023-05-09T20:18:56.485Z,99.90
2023-05-09T20:21:27.957Z,99.90
2023-05-09T20:24:02.797Z,99.90
2023-05-09T20:26:33.872Z,99.90
2023-05-09T20:29:06.149Z,99.90
2023-05-09T20:31:38.239Z,99.90
2023-05-09T20:34:15.956Z,99.90
2023-05-09T20:36:53.082Z,99.90
2023-05-09T20:39:25.122Z,99.90
2023-05-09T20:42:00.422Z,99.90
2023-05-09T20:44:47.772Z,99.90
2023-05-09T20:47:21.737Z,99.90
2023-05-09T20:49:58.081Z,99.90
2023-05-09T20:52:29.522Z,99.90
2023-05-09T20:55:04.974Z,99.90
2023-05-09T20:57:43.678Z,99.90
2023-05-09T21:00:15.567Z,99.90
2023-05-09T21:02:49.065Z,99.90
2023-05-09T21:05:28.302Z,99.90
2023-05-09T21:07:57.071Z,99.90
2023-05-09T21:10:30.039Z,99.90
2023-05-09T21:13:07.141Z,99.90
2023-05-09T21:15:41.265Z,99.90
2023-05-09T21:18:19.126Z,99.90
2023-05-09T21:20:56.122Z,99.90
2023-05-09T21:23:25.569Z,99.90
2023-05-09T21:25:59.959Z,99.90
2023-05-09T21:28:40.460Z,99.90
2023-05-09T21:31:16.197Z,99.90
2023-05-09T21:33:47.982Z,99.90
2023-05-09T21:36:20.019Z,99.90
2023-05-09T21:38:51.193Z,99.90
2023-05-09T21:41:19.567Z,99.90
2023-05-09T21:43:55.070Z,99.90
2023-05-09T21:46:24.225Z,99.90
2023-05-09T21:48:54.090Z,99.90
2023-05-09T21:51:27.354Z,99.90
2023-05-09T21:53:56.462Z,99.90
2023-05-09T21:56:31.177Z,99.90
2023-05-09T21:59:00.618Z,99.90
2023-05-09T22:01:45.124Z,99.90
2023-05-09T22:04:16.368Z,99.90
2023-05-09T22:06:48.961Z,99.90
2023-05-09T22:09:23.722Z,99.90
2023-05-09T22:12:08.653Z,99.90
2023-05-09T22:14:52.676Z,99.90
2023-05-09T22:17:37.239Z,99.90
2023-05-09T22:20:12.630Z,99.90
2023-05-09T22:22:42.438Z,99.90
2023-05-09T22:25:11.677Z,99.90
2023-05-09T22:27:47.880Z,99.90
2023-05-09T22:30:23.381Z,99.90
2023-05-09T22:32:54.887Z,99.90
2023-05-09T22:35:24.973Z,99.90
2023-05-09T22:37:52.799Z,99.90
2023-05-09T22:40:23.558Z,99.90
2023-05-09T22:42:53.792Z,99.90
2023-05-09T22:45:25.016Z,99.90
2023-05-09T22:47:57.851Z,99.90
2023-05-09T22:50:27.727Z,99.90
2023-05-09T22:53:05.955Z,99.90
2023-05-09T22:55:45.771Z,99.90
2023-05-09T22:58:23.085Z,99.90
2023-05-09T23:00:53.961Z,99.90
2023-05-09T23:03:27.312Z,99.90
2023-05-09T23:06:12.832Z,99.90
2023-05-09T23:08:42.297Z,99.90
2023-05-09T23:11:13.705Z,99.90
2023-05-09T23:13:48.066Z,99.90
2023-05-09T23:16:20.467Z,99.90
2023-05-09T23:18:55.937Z,99.90
2023-05-09T23:21:23.902Z,99.90
2023-05-09T23:23:56.237Z,99.90
2023-05-09T23:26:24.874Z,99.90
2023-05-09T23:28:59.622Z,99.90
2023-05-09T23:31:30.836Z,99.90
2023-05-09T23:34:01.984Z,99.90
2023-05-09T23:36:39.423Z,99.90
2023-05-09T23:39:11.277Z,99.90
2023-05-09T23:41:44.682Z,99.90
2023-05-09T23:44:26.980Z,99.90
2023-05-09T23:47:02.304Z,99.90
2023-05-09T23:49:31.108Z,99.90
2023-05-09T23:52:06.379Z,99.90
2023-05-09T23:54:49.986Z,99.90
2023-05-09T23:57:21.807Z,99.90
2023-05-09T23:59:54.481Z,99.90
